Main page
Satellite images 10-day forecastsClimateMarine weather Cyclones Lightning AirportsFAQ Newsletter About
Weather : Europe Africa North America South America Asia Australia-Oceania Others
Languages Contact

Munich, Germany

Munich Airport

latitude: 48-21N, longitude: 011-47E, elevation: 453 m


METAR: EDDM 051120Z 33011KT 9999 FEW021 SCT027 BKN050 03/M01 Q1033 NOSIG
TAF: EDDM 051100Z 0512/0618 32010KT 9999 BKN025 BECMG 0517/0519 35005KT BECMG 0522/0524 26005KT

Time: 12:51 (11:51 UTC)

Current weather observation

The report was made 31 minutes ago, at 11:20 UTC
Wind 11 kt from the North/Northwest
Temperature 3°C
Humidity 75%
Pressure 1033 hPa
Visibility 10 km or more
Few clouds at a height of 2100 ft
Scattered clouds at a height of 2700 ft
Broken clouds at a height of 5000 ft

Change units

Forecast

The report was made 51 minutes ago, at 11:00 UTC
Forecast valid from 05 at 12 UTC to 06 at 18 UTC
Wind 10 kt from the Northwest
Visibility 10 km or more
Broken clouds at a height of 2500 ft
Becoming
from 05 at 17 UTC to 05 at 19 UTC
Wind 5 kt from the North
Becoming
from 05 at 22 UTC to 05 at 24 UTC
Wind 5 kt from the West
The information on this site is subject to a disclaimer
Weather : Europe Africa North America South America Asia Australia-Oceania Others
Satellite images 10-day forecastsClimateMarine weather Cyclones Lightning AirportsFAQ Languages Contact Newsletter About